createdAt,value
2022-12-22T00:01:35.863Z,0.20
2022-12-22T00:05:00.881Z,0.20
2022-12-22T00:08:21.610Z,0.30
2022-12-22T00:11:42.466Z,0.30
2022-12-22T00:15:04.687Z,0.30
2022-12-22T00:18:32.193Z,0.30
2022-12-22T00:21:53.274Z,0.30
2022-12-22T00:25:13.999Z,0.40
2022-12-22T00:28:34.936Z,0.40
2022-12-22T00:31:55.706Z,0.40
2022-12-22T00:35:18.773Z,0.40
2022-12-22T00:38:40.290Z,0.40
2022-12-22T00:42:01.232Z,0.40
2022-12-22T00:45:21.729Z,0.40
2022-12-22T00:48:45.357Z,0.50
2022-12-22T00:52:05.926Z,0.50
2022-12-22T00:55:35.437Z,0.50
2022-12-22T00:58:56.413Z,0.40
2022-12-22T01:02:17.326Z,0.40
2022-12-22T01:05:38.280Z,0.40
2022-12-22T01:08:59.423Z,0.40
2022-12-22T01:12:22.146Z,0.50
2022-12-22T01:15:43.947Z,0.50
2022-12-22T01:19:04.949Z,0.60
2022-12-22T01:22:30.937Z,0.50
2022-12-22T01:25:51.590Z,0.50
2022-12-22T01:29:12.267Z,0.60
2022-12-22T01:32:33.759Z,0.60
2022-12-22T01:35:54.704Z,0.60
2022-12-22T01:39:15.537Z,0.60
2022-12-22T01:42:36.086Z,0.70
2022-12-22T01:45:56.895Z,0.70
2022-12-22T01:49:17.848Z,0.80
2022-12-22T01:52:42.859Z,0.80
2022-12-22T01:56:03.987Z,0.70
2022-12-22T01:59:24.936Z,0.70
2022-12-22T02:02:47.219Z,0.70
2022-12-22T02:06:24.478Z,0.70
2022-12-22T02:10:09.235Z,0.60
2022-12-22T02:13:47.240Z,0.60
2022-12-22T02:17:13.598Z,0.60
2022-12-22T02:20:55.814Z,0.60
2022-12-22T02:24:45.732Z,0.70
2022-12-22T02:28:08.817Z,0.70
2022-12-22T02:31:29.542Z,0.70
2022-12-22T02:34:50.062Z,0.80
2022-12-22T02:38:44.222Z,0.80
2022-12-22T02:42:16.700Z,0.80
2022-12-22T02:45:43.348Z,0.80
2022-12-22T02:49:17.512Z,0.80
2022-12-22T02:52:45.824Z,0.80
2022-12-22T02:56:06.535Z,0.80
2022-12-22T02:59:27.517Z,0.80
2022-12-22T03:02:48.284Z,0.80
2022-12-22T03:06:09.146Z,0.80
2022-12-22T03:09:30.061Z,0.80
2022-12-22T03:12:50.637Z,0.80
2022-12-22T03:16:11.201Z,0.80
2022-12-22T03:19:32.154Z,0.80
2022-12-22T03:22:52.887Z,0.80
2022-12-22T03:25:55.006Z,0.80
2022-12-22T03:28:57.104Z,0.90
2022-12-22T03:31:59.395Z,0.90
2022-12-22T03:35:01.568Z,0.90
2022-12-22T03:38:03.889Z,0.90
2022-12-22T03:41:06.427Z,0.90
2022-12-22T03:44:27.127Z,1.00
2022-12-22T03:47:30.652Z,1.00
2022-12-22T03:50:34.095Z,0.90
2022-12-22T03:53:36.364Z,1.00
2022-12-22T03:56:38.918Z,1.00
2022-12-22T03:59:41.048Z,1.00
2022-12-22T04:02:43.208Z,1.00
2022-12-22T04:05:45.978Z,1.00
2022-12-22T04:08:48.183Z,1.10
2022-12-22T04:12:09.227Z,1.10
2022-12-22T04:15:11.348Z,1.10
2022-12-22T04:18:13.463Z,1.10
2022-12-22T04:21:16.047Z,1.00
2022-12-22T04:24:18.506Z,1.00
2022-12-22T04:27:21.054Z,1.10
2022-12-22T04:30:24.926Z,1.10
2022-12-22T04:33:27.009Z,1.10
2022-12-22T04:36:29.072Z,1.20
2022-12-22T04:39:31.627Z,1.10
2022-12-22T04:42:33.848Z,1.10
2022-12-22T04:45:36.079Z,1.20
2022-12-22T04:48:38.333Z,1.20
2022-12-22T04:51:40.449Z,1.20
2022-12-22T04:54:42.555Z,1.20
2022-12-22T04:57:44.719Z,1.20
2022-12-22T05:00:47.225Z,1.20
2022-12-22T05:03:49.473Z,1.20
2022-12-22T05:06:51.668Z,1.20
2022-12-22T05:09:53.818Z,1.20
2022-12-22T05:12:56.010Z,1.20
2022-12-22T05:16:10.537Z,1.20
2022-12-22T05:19:12.727Z,1.20
2022-12-22T05:22:14.992Z,1.30
2022-12-22T05:25:17.915Z,1.30
2022-12-22T05:28:20.241Z,1.40
2022-12-22T05:31:24.407Z,1.50
2022-12-22T05:34:26.762Z,1.50
2022-12-22T05:37:29.498Z,1.50
2022-12-22T05:40:31.645Z,1.50
2022-12-22T05:43:34.886Z,1.50
2022-12-22T05:46:37.063Z,1.50
2022-12-22T05:49:39.260Z,1.50
2022-12-22T05:52:41.366Z,1.50
2022-12-22T05:55:43.547Z,1.50
2022-12-22T05:58:45.782Z,1.50
2022-12-22T06:01:48.237Z,1.50
2022-12-22T06:04:50.483Z,1.50
2022-12-22T06:07:52.762Z,1.50
2022-12-22T06:10:56.996Z,1.50
2022-12-22T06:13:59.162Z,1.50
2022-12-22T06:17:01.606Z,1.40
2022-12-22T06:20:05.268Z,1.50
2022-12-22T06:23:07.495Z,1.40
2022-12-22T06:26:09.634Z,1.30
2022-12-22T06:29:11.686Z,1.30
2022-12-22T06:32:14.119Z,1.20
2022-12-22T06:35:16.403Z,1.20
2022-12-22T06:38:18.641Z,1.20
2022-12-22T06:41:40.853Z,1.20
2022-12-22T06:44:42.934Z,1.20
2022-12-22T06:47:45.062Z,1.20
2022-12-22T06:50:47.238Z,1.20
2022-12-22T06:53:49.371Z,1.20
2022-12-22T06:56:51.411Z,1.20
2022-12-22T06:59:57.403Z,1.20
2022-12-22T07:03:00.414Z,1.20
2022-12-22T07:06:02.784Z,1.20
2022-12-22T07:09:04.929Z,1.20
2022-12-22T07:12:07.298Z,1.20
2022-12-22T07:15:10.076Z,1.30
2022-12-22T07:18:12.961Z,1.30
2022-12-22T07:21:15.158Z,1.30
2022-12-22T07:24:23.184Z,1.30
2022-12-22T07:27:25.423Z,1.30
2022-12-22T07:30:27.606Z,1.30
2022-12-22T07:33:29.994Z,1.30
2022-12-22T07:36:32.163Z,1.30
2022-12-22T07:39:34.475Z,1.20
2022-12-22T07:42:45.329Z,1.20
2022-12-22T07:45:47.452Z,1.20
2022-12-22T07:49:08.201Z,1.30
2022-12-22T07:52:10.325Z,1.30
2022-12-22T07:55:12.431Z,1.40
2022-12-22T07:58:14.566Z,1.40
2022-12-22T08:01:16.819Z,1.50
2022-12-22T08:04:19.315Z,1.60
2022-12-22T08:07:21.476Z,1.70
2022-12-22T08:10:24.055Z,1.70
2022-12-22T08:13:26.343Z,1.80
2022-12-22T08:16:28.892Z,1.90
2022-12-22T08:19:32.853Z,2.00
2022-12-22T08:22:35.034Z,2.10
2022-12-22T08:25:37.371Z,2.30
2022-12-22T08:28:49.609Z,2.40
2022-12-22T08:31:52.244Z,2.50
2022-12-22T08:34:54.597Z,2.50
2022-12-22T08:37:56.747Z,2.50
2022-12-22T08:40:59.283Z,2.50
2022-12-22T08:44:01.395Z,2.60
2022-12-22T08:47:03.923Z,2.60
2022-12-22T08:50:06.866Z,2.80
2022-12-22T08:53:23.762Z,3.30
2022-12-22T08:56:31.743Z,3.90
2022-12-22T08:59:34.045Z,4.40
2022-12-22T09:02:38.526Z,4.80
2022-12-22T09:05:42.052Z,4.80
2022-12-22T09:08:44.500Z,5.00
2022-12-22T09:11:46.657Z,5.30
2022-12-22T09:14:48.802Z,5.30
2022-12-22T09:17:50.997Z,5.30
2022-12-22T09:20:56.277Z,5.50
2022-12-22T09:23:58.970Z,5.60
2022-12-22T09:27:03.505Z,5.60
2022-12-22T09:30:06.613Z,5.70
2022-12-22T09:33:09.021Z,5.70
2022-12-22T09:36:13.788Z,5.80
2022-12-22T09:39:16.284Z,5.70
2022-12-22T09:42:21.656Z,5.70
2022-12-22T09:45:23.985Z,5.70
2022-12-22T09:48:35.736Z,5.50
2022-12-22T09:51:48.168Z,5.30
2022-12-22T09:54:51.001Z,5.30
2022-12-22T09:57:56.362Z,5.40
2022-12-22T10:01:25.358Z,5.30
2022-12-22T10:04:27.585Z,5.30
2022-12-22T10:07:42.241Z,5.40
2022-12-22T10:10:45.029Z,5.40
2022-12-22T10:13:48.709Z,5.40
2022-12-22T10:17:10.920Z,5.50
2022-12-22T10:20:28.517Z,5.60
2022-12-22T10:23:34.418Z,5.90
2022-12-22T10:26:36.645Z,6.10
2022-12-22T10:29:39.494Z,6.10
2022-12-22T10:32:42.019Z,6.20
2022-12-22T10:35:52.256Z,6.30
2022-12-22T10:39:07.592Z,6.40
2022-12-22T10:42:16.450Z,6.60
2022-12-22T10:45:21.295Z,6.80
2022-12-22T10:48:29.591Z,6.90
2022-12-22T10:51:31.930Z,7.10
2022-12-22T10:54:38.240Z,7.20
2022-12-22T10:57:40.346Z,7.10
2022-12-22T11:00:45.185Z,7.00
2022-12-22T11:03:47.354Z,7.00
2022-12-22T11:06:49.937Z,7.00
2022-12-22T11:09:53.496Z,7.00
2022-12-22T11:13:17.559Z,7.00
2022-12-22T11:16:32.031Z,7.00
2022-12-22T11:19:39.678Z,7.00
2022-12-22T11:22:53.801Z,7.00
2022-12-22T11:26:07.884Z,7.00
2022-12-22T11:29:18.793Z,7.10
2022-12-22T11:32:36.263Z,7.30
2022-12-22T11:36:05.115Z,7.40
2022-12-22T11:39:19.698Z,7.50
2022-12-22T11:42:33.478Z,7.80
2022-12-22T11:45:43.332Z,7.80
2022-12-22T11:49:26.734Z,8.00
2022-12-22T11:53:06.490Z,8.30
2022-12-22T11:56:33.196Z,9.20
2022-12-22T11:59:47.185Z,9.70
2022-12-22T12:03:29.835Z,9.60
2022-12-22T12:07:07.564Z,9.50
2022-12-22T12:10:14.794Z,9.70
2022-12-22T12:13:30.012Z,9.90
2022-12-22T12:16:55.668Z,10.20
2022-12-22T12:20:09.446Z,10.50
2022-12-22T12:23:24.116Z,10.60
2022-12-22T12:26:34.547Z,11.20
2022-12-22T12:30:13.460Z,11.20
2022-12-22T12:33:38.946Z,11.00
2022-12-22T12:37:08.396Z,11.20
2022-12-22T12:40:34.920Z,11.30
2022-12-22T12:43:37.675Z,11.60
2022-12-22T12:46:52.505Z,11.70
2022-12-22T12:50:03.595Z,11.60
2022-12-22T12:53:08.802Z,10.90
2022-12-22T12:56:11.077Z,10.30
2022-12-22T12:59:42.135Z,9.90
2022-12-22T13:02:58.119Z,9.40
2022-12-22T13:06:03.054Z,9.20
2022-12-22T13:09:39.699Z,9.10
2022-12-22T13:12:41.220Z,9.00
2022-12-22T13:15:45.191Z,8.90
2022-12-22T13:18:51.390Z,8.90
2022-12-22T13:21:57.835Z,8.90
2022-12-22T13:25:03.819Z,8.90
2022-12-22T13:28:06.423Z,8.90
2022-12-22T13:31:29.035Z,8.80
2022-12-22T13:38:36.789Z,8.80
2022-12-22T13:41:42.093Z,8.80
2022-12-22T13:44:44.390Z,9.00
2022-12-22T13:47:48.340Z,9.60
2022-12-22T13:51:27.388Z,10.30
2022-12-22T13:54:36.027Z,10.80
2022-12-22T13:57:39.689Z,11.20
2022-12-22T14:00:42.265Z,10.80
2022-12-22T14:04:02.205Z,10.50
2022-12-22T14:07:19.544Z,10.00
2022-12-22T14:10:34.141Z,9.60
2022-12-22T14:13:39.612Z,9.30
2022-12-22T14:16:47.345Z,9.10
2022-12-22T14:19:51.556Z,8.90
2022-12-22T14:23:08.058Z,8.60
2022-12-22T14:26:20.892Z,8.50
2022-12-22T14:29:27.514Z,8.40
2022-12-22T14:32:54.886Z,8.30
2022-12-22T14:36:23.871Z,8.20
2022-12-22T14:39:31.981Z,8.10
2022-12-22T14:42:34.704Z,8.00
2022-12-22T14:45:36.813Z,7.80
2022-12-22T14:48:45.528Z,7.80
2022-12-22T14:52:01.472Z,7.70
2022-12-22T14:55:06.693Z,7.60
2022-12-22T14:58:22.722Z,7.50
2022-12-22T15:01:30.811Z,7.40
2022-12-22T15:04:33.116Z,7.30
2022-12-22T15:08:10.969Z,7.10
2022-12-22T15:11:17.029Z,6.90
2022-12-22T15:14:25.042Z,6.80
2022-12-22T15:17:27.212Z,6.70
2022-12-22T15:20:37.046Z,6.60
2022-12-22T15:23:41.369Z,6.50
2022-12-22T15:26:44.536Z,6.50
2022-12-22T15:29:46.902Z,6.70
2022-12-22T15:32:49.699Z,6.80
2022-12-22T15:35:51.889Z,6.90
2022-12-22T15:38:54.298Z,6.90
2022-12-22T15:41:56.363Z,6.90
2022-12-22T15:44:58.539Z,6.90
2022-12-22T15:48:00.619Z,7.00
2022-12-22T15:51:06.187Z,7.10
2022-12-22T15:54:13.896Z,7.30
2022-12-22T15:57:16.041Z,7.30
2022-12-22T16:00:24.832Z,7.30
2022-12-22T16:03:27.043Z,7.20
2022-12-22T16:06:30.747Z,7.10
2022-12-22T16:09:42.955Z,7.00
2022-12-22T16:12:54.055Z,6.90
2022-12-22T16:15:57.796Z,6.90
2022-12-22T16:18:59.961Z,6.80
2022-12-22T16:22:02.108Z,6.70
2022-12-22T16:25:07.991Z,6.70
2022-12-22T16:28:20.014Z,6.60
2022-12-22T16:31:24.195Z,6.60
2022-12-22T16:34:26.307Z,6.50
2022-12-22T16:37:28.352Z,6.50
2022-12-22T16:40:33.540Z,6.50
2022-12-22T16:43:50.640Z,6.50
2022-12-22T16:46:52.800Z,6.40
2022-12-22T16:49:55.874Z,6.40
2022-12-22T16:53:03.040Z,6.40
2022-12-22T16:56:05.240Z,6.40
2022-12-22T16:59:07.449Z,6.40
2022-12-22T17:02:23.899Z,6.40
2022-12-22T17:05:28.965Z,6.40
2022-12-22T17:08:42.222Z,6.30
2022-12-22T17:11:46.208Z,6.30
2022-12-22T17:14:49.653Z,6.30
2022-12-22T17:17:52.719Z,6.40
2022-12-22T17:20:57.146Z,6.30
2022-12-22T17:24:04.736Z,6.30
2022-12-22T17:27:07.484Z,6.30
2022-12-22T17:30:18.996Z,6.30
2022-12-22T17:33:21.575Z,6.30
2022-12-22T17:36:34.232Z,6.30
2022-12-22T17:39:38.691Z,6.20
2022-12-22T17:42:41.008Z,6.20
2022-12-22T17:45:46.007Z,6.30
2022-12-22T17:48:49.331Z,6.20
2022-12-22T17:51:51.437Z,6.20
2022-12-22T17:54:53.691Z,6.20
2022-12-22T17:57:56.819Z,6.30
2022-12-22T18:00:59.190Z,6.30
2022-12-22T18:04:01.374Z,6.30
2022-12-22T18:07:03.787Z,6.30
2022-12-22T18:10:07.801Z,6.20
2022-12-22T18:13:25.888Z,6.10
2022-12-22T18:16:28.553Z,6.10
2022-12-22T18:19:30.759Z,6.10
2022-12-22T18:22:33.174Z,6.10
2022-12-22T18:25:35.497Z,6.10
2022-12-22T18:28:38.430Z,6.00
2022-12-22T18:31:40.575Z,6.00
2022-12-22T18:34:42.974Z,6.00
2022-12-22T18:37:45.359Z,5.90
2022-12-22T18:40:48.099Z,5.90
2022-12-22T18:43:51.210Z,5.80
2022-12-22T18:46:53.821Z,5.80
2022-12-22T18:49:56.352Z,5.80
2022-12-22T18:53:02.324Z,5.80
2022-12-22T18:56:04.814Z,5.80
2022-12-22T18:59:25.109Z,5.70
2022-12-22T19:02:30.716Z,5.70
2022-12-22T19:05:34.141Z,5.70
2022-12-22T19:08:41.835Z,5.70
2022-12-22T19:11:47.508Z,5.60
2022-12-22T19:14:53.372Z,5.60
2022-12-22T19:17:55.921Z,5.50
2022-12-22T19:21:00.689Z,5.50
2022-12-22T19:24:03.299Z,5.50
2022-12-22T19:27:08.015Z,5.50
2022-12-22T19:30:33.796Z,5.40
2022-12-22T19:33:43.672Z,5.30
2022-12-22T19:36:47.513Z,5.20
2022-12-22T19:39:49.919Z,5.00
2022-12-22T19:42:56.058Z,4.90
2022-12-22T19:45:58.620Z,4.70
2022-12-22T19:49:01.766Z,4.40
2022-12-22T19:52:04.477Z,4.20
2022-12-22T19:55:07.015Z,4.10
2022-12-22T19:58:40.312Z,4.00
2022-12-22T20:01:42.497Z,3.80
2022-12-22T20:04:44.858Z,3.60
2022-12-22T20:07:47.101Z,3.40
2022-12-22T20:10:58.162Z,3.30
2022-12-22T20:14:01.079Z,3.20
2022-12-22T20:17:03.533Z,3.10
2022-12-22T20:20:06.766Z,3.10
2022-12-22T20:23:20.039Z,3.10
2022-12-22T20:26:25.901Z,3.10
2022-12-22T20:29:28.633Z,3.20
2022-12-22T20:32:31.404Z,3.20
2022-12-22T20:35:33.700Z,3.20
2022-12-22T20:38:39.938Z,3.30
2022-12-22T20:41:52.215Z,3.40
2022-12-22T20:45:03.914Z,3.50
2022-12-22T20:48:07.314Z,3.60
2022-12-22T20:51:17.388Z,3.70
2022-12-22T20:54:20.489Z,3.70
2022-12-22T20:57:24.405Z,3.80
2022-12-22T21:00:28.726Z,3.70
2022-12-22T21:03:30.901Z,3.70
2022-12-22T21:06:37.164Z,3.70
2022-12-22T21:09:39.409Z,3.70
2022-12-22T21:12:41.848Z,3.80
2022-12-22T21:15:45.868Z,3.80
2022-12-22T21:18:48.074Z,3.90
2022-12-22T21:21:50.268Z,3.90
2022-12-22T21:24:52.383Z,3.90
2022-12-22T21:27:54.807Z,4.00
2022-12-22T21:30:57.732Z,4.00
2022-12-22T21:33:59.929Z,4.10
2022-12-22T21:37:02.917Z,4.10
2022-12-22T21:40:06.050Z,4.10
2022-12-22T21:43:09.879Z,4.10
2022-12-22T21:46:13.368Z,4.10
2022-12-22T21:49:26.798Z,4.20
2022-12-22T21:52:28.941Z,4.20
2022-12-22T21:55:36.479Z,4.20
2022-12-22T21:58:38.699Z,4.20
2022-12-22T22:01:42.053Z,4.20
2022-12-22T22:04:49.960Z,4.20
2022-12-22T22:07:57.100Z,4.20
2022-12-22T22:10:59.397Z,4.20
2022-12-22T22:14:01.485Z,4.10
2022-12-22T22:17:03.550Z,4.10
2022-12-22T22:20:07.939Z,4.10
2022-12-22T22:23:14.505Z,4.10
2022-12-22T22:26:16.581Z,4.00
2022-12-22T22:29:18.883Z,4.00
2022-12-22T22:32:21.004Z,4.00
2022-12-22T22:35:25.035Z,4.00
2022-12-22T22:38:27.409Z,3.90
2022-12-22T22:41:34.084Z,4.00
2022-12-22T22:44:38.712Z,4.00
2022-12-22T22:47:40.845Z,3.90
2022-12-22T22:50:43.188Z,3.80
2022-12-22T22:53:45.341Z,3.80
2022-12-22T22:56:47.436Z,3.70
2022-12-22T22:59:49.595Z,3.60
2022-12-22T23:02:51.895Z,3.60
2022-12-22T23:06:02.245Z,3.60
2022-12-22T23:09:04.385Z,3.60
2022-12-22T23:12:06.612Z,3.60
2022-12-22T23:15:09.372Z,3.60
2022-12-22T23:18:11.528Z,3.60
2022-12-22T23:21:14.619Z,3.60
2022-12-22T23:24:16.939Z,3.50
2022-12-22T23:27:19.205Z,3.50
2022-12-22T23:30:21.515Z,3.50
2022-12-22T23:33:24.011Z,3.40
2022-12-22T23:36:26.616Z,3.40
2022-12-22T23:39:28.867Z,3.40
2022-12-22T23:42:31.123Z,3.40
2022-12-22T23:45:34.234Z,3.30
2022-12-22T23:48:36.861Z,3.30
2022-12-22T23:51:39.051Z,3.20
2022-12-22T23:54:41.230Z,3.00
2022-12-22T23:57:43.437Z,2.90
